Flight Track Log - Related Links

Times and Time Zones

All times are in EDT time to prevent confusion due to time zone crossing. See the AAL992 flight status page for this flight to view local times or setup timezone preferences in your user account.


Time Position Orientation Groundspeed Altitude Reporting Facility
EDT Latitude Longitude Course Direction KTS MPH feet Rate Location/Type
Wed 09:09:07 PM -19.6450 -43.9530 137° Southeast 184 212 3,500  Level FlightAware ADS-B
Wed 09:09:22 PM -19.6560 -43.9450 146° Southeast 194 223 4,000 1,650 Climbing FlightAware ADS-B
Wed 09:09:47 PM -19.6780 -43.9400 168° South 207 238 4,600 1,500 Climbing FlightAware ADS-B
Wed 09:10:02 PM -19.6900 -43.9310 145° Southeast 211 243 5,000 1,600 Climbing FlightAware ADS-B
Wed 09:10:17 PM -19.6950 -43.9170 111° Southeast 216 249 5,400 1,600 Climbing FlightAware ADS-B
Wed 09:10:32 PM -19.6930 -43.9020 82° East 212 244 5,800 1,600 Climbing FlightAware ADS-B
Wed 09:10:47 PM -19.6830 -43.8910 46° Northeast 207 238 6,200 1,440 Climbing FlightAware ADS-B
Wed 09:10:57 PM -19.6740 -43.8870 23° Northeast 208 239 6,400 1,680 Climbing FlightAware ADS-B
Wed 09:11:12 PM -19.6600 -43.8900 349° North 202 232 6,900 1,733 Climbing FlightAware ADS-B
Wed 09:11:42 PM -19.6340 -43.9030 335° Northwest 211 243 7,700 1,300 Climbing FlightAware ADS-B
Wed 09:12:12 PM -19.6050 -43.9130 342° North 244 281 8,200 1,200 Climbing FlightAware ADS-B
Wed 09:12:22 PM -19.5940 -43.9200 329° Northwest 247 284 8,500 1,440 Climbing FlightAware ADS-B
Wed 09:12:37 PM -19.5840 -43.9330 309° West 259 298 8,800 1,200 Climbing FlightAware ADS-B
Wed 09:12:52 PM -19.5780 -43.9530 288° West 274 315 9,100 1,964 Climbing FlightAware ADS-B
Wed 09:13:32 PM -19.5650 -44.0050 285° West 287 330 10,600 1,800 Climbing FlightAware ADS-B
Wed 09:14:02 PM -19.5490 -44.0460 292° West 317 365 11,200 1,200 Climbing FlightAware ADS-B
Wed 09:14:12 PM -19.5400 -44.0570 311° West 329 379 11,400 1,440 Climbing FlightAware ADS-B
Wed 09:14:27 PM -19.5190 -44.0680 334° Northwest 345 397 11,800 1,400 Climbing FlightAware ADS-B
Wed 09:14:42 PM -19.4940 -44.0730 349° North 365 420 12,100 1,600 Climbing FlightAware ADS-B
Wed 09:15:27 PM -19.4150 -44.0830 353° North 389 448 13,400 1,976 Climbing FlightAware ADS-B
Wed 09:16:07 PM -19.3440 -44.1000 347° North 395 455 14,900 1,800 Climbing FlightAware ADS-B
Wed 09:16:47 PM -19.2720 -44.1220 344° North 408 470 15,800 1,765 Climbing FlightAware ADS-B
Wed 09:17:32 PM -19.2060 -44.1740 323° Northwest 403 464 17,400 2,329 Climbing FlightAware ADS-B
Wed 09:18:12 PM -19.1600 -44.2320 310° West 403 464 19,100 1,976 Climbing FlightAware ADS-B
Wed 09:18:57 PM -19.0990 -44.3010 313° West 420 483 20,200 1,482 Climbing FlightAware ADS-B
Wed 09:19:37 PM -19.0450 -44.3640 312° West 429 494 21,200 1,575 Climbing FlightAware ADS-B
Wed 09:20:17 PM -18.9910 -44.4270 312° West 437 503 22,300 1,694 Climbing FlightAware ADS-B
Wed 09:21:02 PM -18.9310 -44.4980 312° West 441 507 23,600 1,694 Climbing FlightAware ADS-B
Wed 09:21:42 PM -18.8760 -44.5620 312° West 444 511 24,700 1,650 Climbing FlightAware ADS-B
Wed 09:22:22 PM -18.8200 -44.6270 312° West 448 516 25,800 1,482 Climbing FlightAware ADS-B
Wed 09:23:07 PM -18.7590 -44.6980 312° West 454 522 26,800 1,412 Climbing FlightAware ADS-B
Wed 09:23:47 PM -18.7010 -44.7670 312° West 455 524 27,800 847 Climbing FlightAware ADS-B
Wed 09:24:32 PM -18.6370 -44.8400 313° West 450 518 28,000 141 Climbing FlightAware ADS-B
Wed 09:25:12 PM -18.5830 -44.9030 312° West 448 516 28,000  Level FlightAware ADS-B
Wed 09:25:57 PM -18.5180 -44.9780 312° West 451 519 28,000  Level FlightAware ADS-B
Wed 09:26:32 PM -18.4700 -45.0340 312° West 451 519 28,000  Level FlightAware ADS-B
Wed 09:27:17 PM -18.4070 -45.1070 312° West 451 519 28,000  Level FlightAware ADS-B
Wed 09:28:02 PM -18.3430 -45.1810 312° West 453 521 28,000  Level FlightAware ADS-B
Wed 09:28:42 PM -18.2890 -45.2440 312° West 453 521 28,000  Level FlightAware ADS-B
Wed 09:29:27 PM -18.2240 -45.3180 313° West 455 524 28,000  Level FlightAware ADS-B
Wed 09:30:07 PM -18.1670 -45.3830 313° West 456 525 28,000  Level FlightAware ADS-B
Wed 09:30:42 PM -18.1170 -45.4410 312° West 457 526 28,000  Level FlightAware ADS-B
Wed 09:31:27 PM -18.0530 -45.5140 313° West 458 527 28,000  Level FlightAware ADS-B
Wed 09:32:07 PM -17.9990 -45.5770 312° West 458 527 28,000  Level FlightAware ADS-B
Wed 09:32:57 PM -17.9270 -45.6580 313° West 458 527 28,000  Level FlightAware ADS-B
Wed 09:33:52 PM -17.8500 -45.7470 312° West 458 527 28,000  Level FlightAware ADS-B
Wed 09:34:32 PM -17.7850 -45.8190 313° West 458 527 28,000  Level FlightAware ADS-B
Wed 09:35:17 PM -17.7250 -45.8870 313° West 460 529 28,000  Level FlightAware ADS-B
Wed 09:35:52 PM -17.6790 -45.9410 312° West 460 529 28,000  Level FlightAware ADS-B
Wed 09:36:37 PM -17.6910 -45.9270 132° Southeast 461 531 28,000  Level FlightAware ADS-B
Wed 09:37:17 PM -17.6420 -45.9840 312° West 461 531 28,000  Level FlightAware ADS-B
Wed 09:39:00 PM -17.4766 -46.1215 322° Northwest  Level Estimated
Wed 09:40:00 PM -17.3801 -46.2014 322° Northwest  Level Estimated
Wed 09:41:00 PM -17.2837 -46.2813 322° Northwest  Level Estimated
Wed 09:42:00 PM -17.1872 -46.3611 322° Northwest  Level Estimated
Wed 09:43:00 PM -17.0907 -46.4408 322° Northwest  Level Estimated
Wed 09:44:00 PM -16.9942 -46.5204 322° Northwest  Level Estimated
Wed 09:45:00 PM -16.8976 -46.6000 322° Northwest  Level Estimated
Wed 09:46:00 PM -16.8010 -46.6795 322° Northwest  Level Estimated
Wed 09:47:00 PM -16.7043 -46.7588 322° Northwest  Level Estimated
Wed 09:48:00 PM -16.6077 -46.8381 322° Northwest  Level Estimated
Wed 09:49:00 PM -16.5110 -46.9174 322° Northwest  Level Estimated
Wed 09:50:00 PM -16.4142 -46.9965 322° Northwest  Level Estimated
Wed 09:51:00 PM -16.3175 -47.0756 322° Northwest  Level Estimated
Wed 09:51:57 PM -15.8930 -47.1340 322° Northwest 478 550 28,000  Level FlightAware ADS-B
Wed 09:52:00 PM -16.2207 -47.1546 322° Northwest  Level Estimated
Wed 09:52:47 PM -15.7910 -47.1970 329° Northwest 476 548 28,000  Level FlightAware ADS-B
Wed 09:53:22 PM -15.7280 -47.2350 330° Northwest 474 545 28,000  Level FlightAware ADS-B
Wed 09:54:22 PM -15.6200 -47.3010 330° Northwest 474 545 28,000  Level FlightAware ADS-B
Wed 09:55:07 PM -15.5370 -47.3520 329° Northwest 473 544 28,000  Level FlightAware ADS-B
Wed 09:55:47 PM -15.4560 -47.4150 323° Northwest 470 541 28,000  Level FlightAware ADS-B
Wed 09:56:27 PM -15.3900 -47.4660 323° Northwest 469 540 28,000  Level FlightAware ADS-B
Wed 09:57:07 PM -15.3310 -47.5130 322° Northwest 469 540 28,000  Level FlightAware ADS-B
Wed 09:57:47 PM -15.2720 -47.5590 323° Northwest 469 540 28,000  Level FlightAware ADS-B
Wed 09:58:27 PM -15.2130 -47.6050 323° Northwest 469 540 28,000  Level FlightAware ADS-B
Wed 09:59:17 PM -15.0900 -47.6980 324° Northwest 471 542 28,000  Level FlightAware ADS-B
Wed 09:59:57 PM -15.0200 -47.7520 323° Northwest 471 542 28,000  Level FlightAware ADS-B
Wed 10:00:42 PM -14.9480 -47.8080 323° Northwest 471 542 28,000  Level FlightAware ADS-B
Wed 10:01:22 PM -14.8890 -47.8540 323° Northwest 471 542 28,000  Level FlightAware ADS-B
Wed 10:02:02 PM -14.8300 -47.9000 323° Northwest 471 542 28,000  Level FlightAware ADS-B
Wed 10:02:42 PM -14.7710 -47.9460 323° Northwest 471 542 28,000  Level FlightAware ADS-B
Wed 10:03:32 PM -14.6970 -48.0040 323° Northwest 471 542 28,000  Level FlightAware ADS-B
Wed 10:04:12 PM -14.6380 -48.0500 323° Northwest 471 542 28,000 26 Level FlightAware ADS-B
Wed 10:06:00 PM -14.4637 -48.1909 322° Northwest  Level Estimated
Wed 10:07:00 PM -14.3668 -48.2691 322° Northwest  Level Estimated
Wed 10:08:00 PM -14.2699 -48.3472 322° Northwest  Level Estimated
Wed 10:09:00 PM -14.1730 -48.4252 322° Northwest  Level Estimated
Wed 10:10:00 PM -14.0761 -48.5032 322° Northwest  Level Estimated
Wed 10:11:00 PM -13.9791 -48.5811 322° Northwest  Level Estimated
Wed 10:12:00 PM -13.8821 -48.6590 322° Northwest  Level Estimated
Wed 10:13:00 PM -13.7851 -48.7367 322° Northwest  Level Estimated
Wed 10:14:00 PM -13.6881 -48.8145 322° Northwest  Level Estimated
Wed 10:15:00 PM -13.5910 -48.8921 322° Northwest  Level Estimated
Wed 10:16:00 PM -13.4939 -48.9697 322° Northwest  Level Estimated
Wed 10:17:00 PM -13.3968 -49.0472 322° Northwest  Level Estimated
Wed 10:18:00 PM -13.2996 -49.1247 322° Northwest  Level Estimated
Wed 10:19:00 PM -13.2025 -49.2021 322° Northwest  Level Estimated
Wed 10:20:00 PM -13.1053 -49.2794 322° Northwest  Level Estimated
Wed 10:21:00 PM -13.0081 -49.3567 322° Northwest  Level Estimated
Wed 10:22:00 PM -12.9108 -49.4339 322° Northwest  Level Estimated
Wed 10:23:00 PM -12.8136 -49.5111 322° Northwest  Level Estimated
Wed 10:24:00 PM -12.7163 -49.5882 322° Northwest  Level Estimated
Wed 10:25:00 PM -12.6190 -49.6652 322° Northwest  Level Estimated
Wed 10:26:00 PM -12.5217 -49.7422 322° Northwest  Level Estimated
Wed 10:27:00 PM -12.4244 -49.8191 322° Northwest  Level Estimated
Wed 10:28:00 PM -12.3270 -49.8960 322° Northwest  Level Estimated
Wed 10:29:00 PM -12.2296 -49.9728 322° Northwest  Level Estimated
Wed 10:30:00 PM -12.1322 -50.0495 322° Northwest  Level Estimated
Wed 10:31:00 PM -12.0348 -50.1262 322° Northwest  Level Estimated
Wed 10:32:00 PM -11.9373 -50.2029 322° Northwest  Level Estimated
Wed 10:33:00 PM -11.8399 -50.2795 322° Northwest  Level Estimated
Wed 10:34:00 PM -11.7424 -50.3560 322° Northwest  Level Estimated
Wed 10:35:00 PM -11.6448 -50.4325 322° Northwest  Level Estimated
Wed 10:36:00 PM -11.5473 -50.5089 322° Northwest  Level Estimated
Wed 10:37:00 PM -11.4498 -50.5853 322° Northwest  Level Estimated
Wed 10:38:00 PM -11.3522 -50.6616 323° Northwest  Level Estimated
Wed 10:39:00 PM -11.2546 -50.7378 323° Northwest  Level Estimated
Wed 10:40:00 PM -11.1570 -50.8140 323° Northwest  Level Estimated
Wed 10:41:00 PM -11.0594 -50.8902 323° Northwest  Level Estimated
Wed 10:42:00 PM -10.9617 -50.9663 323° Northwest  Level Estimated
Wed 10:43:00 PM -10.8640 -51.0424 323° Northwest  Level Estimated
Wed 10:44:00 PM -10.7664 -51.1184 323° Northwest  Level Estimated
Wed 10:45:00 PM -10.6687 -51.1944 323° Northwest  Level Estimated
Wed 10:46:00 PM -10.5709 -51.2703 323° Northwest  Level Estimated
Wed 10:47:00 PM -10.4732 -51.3461 323° Northwest  Level Estimated
Wed 10:48:00 PM -10.3754 -51.4219 323° Northwest  Level Estimated
Wed 10:49:00 PM -10.2775 -51.4979 323° Northwest  Level Estimated
Wed 10:50:00 PM -10.1795 -51.5737 323° Northwest  Level Estimated
Wed 10:51:00 PM -10.0815 -51.6496 323° Northwest  Level Estimated
Wed 10:52:00 PM -9.9834 -51.7253 323° Northwest  Level Estimated
Wed 10:53:00 PM -9.8854 -51.8011 323° Northwest  Level Estimated
Wed 10:54:00 PM -9.7873 -51.8768 323° Northwest  Level Estimated
Wed 10:55:00 PM -9.6892 -51.9524 323° Northwest  Level Estimated
Wed 10:56:00 PM -9.5911 -52.0280 323° Northwest  Level Estimated
Wed 10:57:00 PM -9.4930 -52.1036 323° Northwest  Level Estimated
Wed 10:58:00 PM -9.3949 -52.1791 323° Northwest  Level Estimated
Wed 10:59:00 PM -9.2967 -52.2546 323° Northwest  Level Estimated
Wed 11:00:00 PM -9.1986 -52.3300 323° Northwest  Level Estimated
Wed 11:01:00 PM -9.1004 -52.4054 323° Northwest  Level Estimated
Wed 11:02:00 PM -9.0022 -52.4808 323° Northwest  Level Estimated
Wed 11:03:00 PM -8.9040 -52.5561 323° Northwest  Level Estimated
Wed 11:04:00 PM -8.8058 -52.6314 323° Northwest  Level Estimated
Wed 11:05:00 PM -8.7075 -52.7066 323° Northwest  Level Estimated
Wed 11:06:00 PM -8.6093 -52.7818 323° Northwest  Level Estimated
Wed 11:07:00 PM -8.5110 -52.8569 323° Northwest  Level Estimated
Wed 11:08:00 PM -8.4127 -52.9320 323° Northwest  Level Estimated
Wed 11:09:00 PM -8.3144 -53.0071 323° Northwest  Level Estimated
Wed 11:10:00 PM -8.2161 -53.0821 323° Northwest  Level Estimated
Wed 11:11:00 PM -8.1178 -53.1571 323° Northwest  Level Estimated
Wed 11:12:00 PM -8.0195 -53.2321 323° Northwest  Level Estimated
Wed 11:13:00 PM -7.9211 -53.3070 323° Northwest  Level Estimated
Wed 11:14:00 PM -7.8228 -53.3819 323° Northwest  Level Estimated
Wed 11:15:00 PM -7.7244 -53.4568 323° Northwest  Level Estimated
Wed 11:16:00 PM -7.6260 -53.5316 323° Northwest  Level Estimated
Wed 11:17:00 PM -7.5276 -53.6064 323° Northwest  Level Estimated
Wed 11:18:00 PM -7.4292 -53.6811 323° Northwest  Level Estimated
Wed 11:19:00 PM -7.3307 -53.7559 323° Northwest  Level Estimated
Wed 11:20:00 PM -7.2323 -53.8305 323° Northwest  Level Estimated
Wed 11:21:00 PM -7.1338 -53.9052 323° Northwest  Level Estimated
Wed 11:22:00 PM -7.0354 -53.9798 323° Northwest  Level Estimated
Wed 11:23:00 PM -6.9369 -54.0544 323° Northwest  Level Estimated
Wed 11:24:00 PM -6.8384 -54.1289 323° Northwest  Level Estimated
Wed 11:25:00 PM -6.7399 -54.2035 323° Northwest  Level Estimated
Wed 11:26:00 PM -6.6414 -54.2780 323° Northwest  Level Estimated
Wed 11:27:00 PM -6.5429 -54.3525 323° Northwest  Level Estimated
Wed 11:28:00 PM -6.4443 -54.4269 323° Northwest  Level Estimated
Wed 11:29:00 PM -6.3458 -54.5013 323° Northwest  Level Estimated
Wed 11:30:00 PM -6.2472 -54.5757 323° Northwest  Level Estimated
Wed 11:31:00 PM -6.1487 -54.6500 323° Northwest  Level Estimated
Wed 11:32:00 PM -6.0501 -54.7243 323° Northwest  Level Estimated
Wed 11:33:00 PM -5.9515 -54.7986 323° Northwest  Level Estimated
Wed 11:34:00 PM -5.8529 -54.8729 323° Northwest  Level Estimated
Wed 11:35:00 PM -5.7543 -54.9472 323° Northwest  Level Estimated
Wed 11:36:00 PM -5.6557 -55.0214 323° Northwest  Level Estimated
Wed 11:37:00 PM -5.5570 -55.0956 323° Northwest  Level Estimated
Wed 11:38:00 PM -5.4584 -55.1697 323° Northwest  Level Estimated
Wed 11:39:00 PM -5.3598 -55.2439 323° Northwest  Level Estimated
Wed 11:40:00 PM -5.2611 -55.3180 323° Northwest  Level Estimated
Wed 11:41:00 PM -5.1624 -55.3921 323° Northwest  Level Estimated
Wed 11:42:00 PM -5.0638 -55.4662 323° Northwest  Level Estimated
Wed 11:43:00 PM -4.9651 -55.5402 323° Northwest  Level Estimated
Wed 11:44:00 PM -4.8664 -55.6143 323° Northwest  Level Estimated
Wed 11:45:00 PM -4.7677 -55.6883 323° Northwest  Level Estimated
Wed 11:46:00 PM -4.6690 -55.7622 323° Northwest  Level Estimated
Wed 11:47:00 PM -4.5703 -55.8362 323° Northwest  Level Estimated
Wed 11:48:00 PM -4.4716 -55.9101 323° Northwest  Level Estimated
Wed 11:49:00 PM -4.3729 -55.9841 323° Northwest  Level Estimated
Wed 11:50:00 PM -4.2741 -56.0580 323° Northwest  Level Estimated
Wed 11:51:00 PM -4.1754 -56.1319 323° Northwest  Level Estimated
Wed 11:52:00 PM -4.0766 -56.2057 323° Northwest  Level Estimated
Wed 11:53:00 PM -3.9779 -56.2796 323° Northwest  Level Estimated
Wed 11:54:00 PM -3.8791 -56.3534 323° Northwest  Level Estimated
Wed 11:55:00 PM -3.7804 -56.4272 323° Northwest  Level Estimated
Wed 11:56:00 PM -3.6816 -56.5010 323° Northwest  Level Estimated
Wed 11:57:00 PM -3.5828 -56.5748 323° Northwest  Level Estimated
Wed 11:58:00 PM -3.4840 -56.6486 323° Northwest  Level Estimated
Wed 11:59:00 PM -3.3852 -56.7223 323° Northwest  Level Estimated
Thu 12:00:00 AM -3.2864 -56.7961 323° Northwest  Level Estimated
Thu 12:01:00 AM -3.1876 -56.8698 323° Northwest  Level Estimated
Thu 12:02:00 AM -3.0888 -56.9435 323° Northwest  Level Estimated
Thu 12:03:00 AM -2.9900 -57.0172 323° Northwest  Level Estimated
Thu 12:04:00 AM -2.8912 -57.0909 323° Northwest  Level Estimated
Thu 12:05:00 AM -2.7924 -57.1645 323° Northwest  Level Estimated
Thu 12:06:00 AM -2.6936 -57.2382 323° Northwest  Level Estimated
Thu 12:07:00 AM -2.5947 -57.3118 323° Northwest  Level Estimated
Thu 12:08:00 AM -2.4959 -57.3854 323° Northwest  Level Estimated
Thu 12:09:00 AM -2.3970 -57.4591 323° Northwest  Level Estimated
Thu 12:10:00 AM -2.2982 -57.5327 323° Northwest  Level Estimated
Thu 12:11:00 AM -2.1994 -57.6063 323° Northwest  Level Estimated
Thu 12:12:00 AM -2.1005 -57.6799 323° Northwest  Level Estimated
Thu 12:13:00 AM -2.0017 -57.7534 323° Northwest  Level Estimated
Thu 12:14:00 AM -1.9028 -57.8270 323° Northwest  Level Estimated
Thu 12:15:00 AM -1.8039 -57.9006 323° Northwest  Level Estimated
Thu 12:16:00 AM -1.7051 -57.9741 323° Northwest  Level Estimated
Thu 12:17:00 AM -1.6062 -58.0477 323° Northwest  Level Estimated
Thu 12:18:00 AM -1.5073 -58.1212 323° Northwest  Level Estimated
Thu 12:19:00 AM -1.4085 -58.1947 323° Northwest  Level Estimated
Thu 12:20:00 AM -1.3096 -58.2683 323° Northwest  Level Estimated
Thu 12:21:00 AM -1.2107 -58.3418 323° Northwest  Level Estimated
Thu 12:22:00 AM -1.1118 -58.4153 323° Northwest  Level Estimated
Thu 12:23:00 AM -1.0130 -58.4888 323° Northwest  Level Estimated
Thu 12:24:00 AM -0.9141 -58.5623 323° Northwest  Level Estimated
Thu 12:25:00 AM -0.8152 -58.6358 323° Northwest  Level Estimated
Thu 12:26:00 AM -0.7163 -58.7093 323° Northwest  Level Estimated
Thu 12:27:00 AM -0.6174 -58.7828 323° Northwest  Level Estimated
Thu 12:28:00 AM -0.5185 -58.8563 323° Northwest  Level Estimated
Thu 12:29:00 AM -0.4196 -58.9298 323° Northwest  Level Estimated
Thu 12:30:00 AM -0.3208 -59.0033 323° Northwest  Level Estimated
Thu 12:31:00 AM -0.2219 -59.0768 323° Northwest  Level Estimated
Thu 12:32:00 AM -0.1230 -59.1503 323° Northwest  Level Estimated
Thu 12:33:00 AM -0.0241 -59.2238 323° Northwest  Level Estimated
Thu 12:34:00 AM 0.0748 -59.2972 323° Northwest  Level Estimated
Thu 12:35:00 AM 0.1737 -59.3707 323° Northwest  Level Estimated
Thu 12:36:00 AM 0.2726 -59.4442 323° Northwest  Level Estimated
Thu 12:37:00 AM 0.3715 -59.5177 323° Northwest  Level Estimated
Thu 12:38:00 AM 0.4704 -59.5912 323° Northwest  Level Estimated
Thu 12:39:00 AM 0.5692 -59.6647 323° Northwest  Level Estimated
Thu 12:40:00 AM 0.6681 -59.7382 323° Northwest  Level Estimated
Thu 12:41:00 AM 0.7670 -59.8117 323° Northwest  Level Estimated
Thu 12:42:00 AM 0.8659 -59.8852 323° Northwest  Level Estimated
Thu 12:43:00 AM 0.9648 -59.9587 323° Northwest  Level Estimated
Thu 12:44:00 AM 1.0637 -60.0322 323° Northwest  Level Estimated
Thu 12:45:00 AM 1.1625 -60.1057 323° Northwest  Level Estimated
Thu 12:46:00 AM 1.2614 -60.1792 323° Northwest  Level Estimated
Thu 12:47:00 AM 1.3603 -60.2527 323° Northwest  Level Estimated
Thu 12:48:00 AM 1.4592 -60.3263 323° Northwest  Level Estimated
Thu 12:49:00 AM 1.5580 -60.3998 323° Northwest  Level Estimated
Thu 12:50:00 AM 1.6569 -60.4734 323° Northwest  Level Estimated
Thu 12:51:00 AM 1.7556 -60.5467 323° Northwest  Level Estimated
Thu 12:52:00 AM 1.8542 -60.6202 323° Northwest  Level Estimated
Thu 12:53:00 AM 1.9529 -60.6936 323° Northwest  Level Estimated
Thu 12:54:00 AM 2.0515 -60.7670 323° Northwest  Level Estimated
Thu 12:55:00 AM 2.1502 -60.8404 323° Northwest  Level Estimated
Thu 12:56:00 AM 2.2488 -60.9139 323° Northwest  Level Estimated
Thu 12:57:00 AM 2.3475 -60.9873 323° Northwest  Level Estimated
Thu 12:58:00 AM 2.4461 -61.0608 323° Northwest  Level Estimated
Thu 12:59:00 AM 2.5447 -61.1342 323° Northwest  Level Estimated
Thu 01:00:00 AM 2.6434 -61.2077 323° Northwest  Level Estimated
Thu 01:01:00 AM 2.7420 -61.2812 323° Northwest  Level Estimated
Thu 01:02:00 AM 2.8406 -61.3547 323° Northwest  Level Estimated
Thu 01:03:00 AM 2.9392 -61.4282 323° Northwest  Level Estimated
Thu 01:04:00 AM 3.0378 -61.5018 323° Northwest  Level Estimated
Thu 01:05:00 AM 3.1365 -61.5753 323° Northwest  Level Estimated
Thu 01:06:00 AM 3.2351 -61.6489 323° Northwest  Level Estimated
Thu 01:07:00 AM 3.3337 -61.7225 323° Northwest  Level Estimated
Thu 01:08:00 AM 3.4323 -61.7961 323° Northwest  Level Estimated
Thu 01:09:00 AM 3.5308 -61.8697 323° Northwest  Level Estimated
Thu 01:10:00 AM 3.6294 -61.9433 323° Northwest  Level Estimated
Thu 01:11:00 AM 3.7280 -62.0169 323° Northwest  Level Estimated
Thu 01:12:00 AM 3.8266 -62.0906 323° Northwest  Level Estimated
Thu 01:13:00 AM 3.9251 -62.1642 323° Northwest  Level Estimated
Thu 01:14:00 AM 4.0237 -62.2379 323° Northwest  Level Estimated
Thu 01:15:00 AM 4.1222 -62.3116 323° Northwest  Level Estimated
Thu 01:16:00 AM 4.2207 -62.3854 323° Northwest  Level Estimated
Thu 01:17:00 AM 4.3193 -62.4591 323° Northwest  Level Estimated
Thu 01:18:00 AM 4.4178 -62.5329 323° Northwest  Level Estimated
Thu 01:19:00 AM 4.5163 -62.6067 323° Northwest  Level Estimated
Thu 01:20:00 AM 4.6148 -62.6805 323° Northwest  Level Estimated
Thu 01:21:00 AM 4.7133 -62.7543 323° Northwest  Level Estimated
Thu 01:22:00 AM 4.8118 -62.8281 323° Northwest  Level Estimated
Thu 01:23:00 AM 4.9103 -62.9020 323° Northwest  Level Estimated
Thu 01:24:00 AM 5.0088 -62.9759 323° Northwest  Level Estimated
Thu 01:25:00 AM 5.1073 -63.0498 323° Northwest  Level Estimated
Thu 01:26:00 AM 5.2057 -63.1237 323° Northwest  Level Estimated
Thu 01:27:00 AM 5.3042 -63.1977 323° Northwest  Level Estimated
Thu 01:28:00 AM 5.4026 -63.2716 323° Northwest  Level Estimated
Thu 01:29:00 AM 5.5011 -63.3456 323° Northwest  Level Estimated
Thu 01:30:00 AM 5.5995 -63.4197 323° Northwest  Level Estimated
Thu 01:31:00 AM 5.6979 -63.4937 323° Northwest  Level Estimated
Thu 01:32:00 AM 5.7963 -63.5678 323° Northwest  Level Estimated
Thu 01:33:00 AM 5.8947 -63.6419 323° Northwest  Level Estimated
Thu 01:34:00 AM 5.9931 -63.7160 323° Northwest  Level Estimated
Thu 01:35:00 AM 6.0915 -63.7902 323° Northwest  Level Estimated
Thu 01:36:00 AM 6.1899 -63.8644 323° Northwest  Level Estimated
Thu 01:37:00 AM 6.2882 -63.9386 323° Northwest  Level Estimated
Thu 01:38:00 AM 6.3866 -64.0128 323° Northwest  Level Estimated
Thu 01:39:00 AM 6.4849 -64.0871 323° Northwest  Level Estimated
Thu 01:40:00 AM 6.5833 -64.1614 323° Northwest  Level Estimated
Thu 01:41:00 AM 6.6816 -64.2357 323° Northwest  Level Estimated
Thu 01:42:00 AM 6.7799 -64.3101 323° Northwest  Level Estimated
Thu 01:43:00 AM 6.8782 -64.3845 323° Northwest  Level Estimated
Thu 01:44:00 AM 6.9765 -64.4589 323° Northwest  Level Estimated
Thu 01:45:00 AM 7.0747 -64.5333 323° Northwest  Level Estimated
Thu 01:46:00 AM 7.1730 -64.6078 323° Northwest  Level Estimated
Thu 01:47:00 AM 7.2712 -64.6823 323° Northwest  Level Estimated
Thu 01:48:00 AM 7.3695 -64.7569 323° Northwest  Level Estimated
Thu 01:49:00 AM 7.4677 -64.8314 323° Northwest  Level Estimated
Thu 01:50:00 AM 7.5659 -64.9061 323° Northwest  Level Estimated
Thu 01:51:00 AM 7.6641 -64.9807 323° Northwest  Level Estimated
Thu 01:52:00 AM 7.7658 -65.0580 323° Northwest  Level Estimated
Thu 01:53:00 AM 7.8675 -65.1354 323° Northwest  Level Estimated
Thu 01:54:00 AM 7.9691 -65.2128 323° Northwest  Level Estimated
Thu 01:55:00 AM 8.0708 -65.2903 323° Northwest  Level Estimated
Thu 01:55:47 AM 12.3390 -62.3210 323° Northwest 447 514 34,000  Level FlightAware ADS-B
Thu 01:56:00 AM 8.1724 -65.3678 323° Northwest  Level Estimated
Thu 01:56:32 AM 12.4020 -62.3930 312° West 447 514 34,000  Level FlightAware ADS-B
Thu 01:57:17 AM 12.4670 -62.4470 321° Northwest 447 514 34,000  Level FlightAware ADS-B
Thu 01:58:32 AM 12.5560 -62.5980 301° West 445 512 34,000  Level FlightAware ADS-B
Thu 01:59:12 AM 12.6030 -62.6620 307° West 445 512 34,000  Level FlightAware ADS-B
Thu 01:59:52 AM 12.6600 -62.7250 313° West 451 519 34,000  Level FlightAware ADS-B
Thu 02:00:37 AM 12.7290 -62.7830 321° Northwest 454 522 34,000  Level FlightAware ADS-B
Thu 02:01:17 AM 12.8030 -62.8380 324° Northwest 457 526 34,000  Level FlightAware ADS-B
Thu 02:01:52 AM 12.8570 -62.8780 324° Northwest 458 527 34,000  Level FlightAware ADS-B
Thu 02:02:37 AM 12.9280 -62.9430 318° Northwest 458 527 34,000  Level FlightAware ADS-B
Thu 02:03:22 AM 12.9890 -63.0110 313° West 457 526 34,000  Level FlightAware ADS-B
Thu 02:04:07 AM 13.0450 -63.1050 301° West 451 519 34,000  Level FlightAware ADS-B
Thu 02:04:57 AM 13.0930 -63.1910 300° West 448 516 34,000  Level FlightAware ADS-B
Thu 02:05:42 AM 13.1410 -63.2820 298° West 446 513 34,000  Level FlightAware ADS-B
Thu 02:06:22 AM 13.1750 -63.3460 299° West 446 513 34,000  Level FlightAware ADS-B
Thu 02:07:02 AM 13.2430 -63.4160 315° West 447 514 34,000  Level FlightAware ADS-B
Thu 02:07:57 AM 13.3230 -63.4910 318° Northwest 450 518 34,000  Level FlightAware ADS-B
Thu 02:08:32 AM 13.3980 -63.5230 337° Northwest 461 531 34,000  Level FlightAware ADS-B
Thu 02:09:12 AM 13.4780 -63.5560 338° Northwest 465 535 34,000  Level FlightAware ADS-B
Thu 02:09:57 AM 13.5680 -63.5910 339° North 464 534 34,000  Level FlightAware ADS-B
Thu 02:10:37 AM 13.6490 -63.6220 340° North 463 533 34,000  Level FlightAware ADS-B
Thu 02:11:17 AM 13.7250 -63.6520 339° North 461 531 34,000  Level FlightAware ADS-B
Thu 02:12:02 AM 13.8150 -63.6880 339° North 460 529 34,000  Level FlightAware ADS-B
Thu 02:12:42 AM 13.8960 -63.7200 339° North 462 532 34,000  Level FlightAware ADS-B
Thu 02:13:27 AM 13.9800 -63.7540 339° North 462 532 34,000  Level FlightAware ADS-B
Thu 02:14:07 AM 14.0690 -63.7880 340° North 463 533 34,000  Level FlightAware ADS-B
Thu 02:14:52 AM 14.1600 -63.8240 339° North 464 534 34,000  Level FlightAware ADS-B
Thu 02:15:32 AM 14.2410 -63.8550 340° North 466 536 34,000  Level FlightAware ADS-B
Thu 02:16:27 AM 14.3360 -63.8930 339° North 466 536 34,000  Level FlightAware ADS-B
Thu 02:17:22 AM 14.4620 -63.9420 339° North 460 529 34,000  Level FlightAware ADS-B
Thu 02:18:07 AM 14.5480 -63.9760 339° North 458 527 34,000  Level FlightAware ADS-B
Thu 02:18:42 AM 14.6140 -64.0020 339° North 458 527 34,000  Level FlightAware ADS-B
Thu 02:19:27 AM 14.6980 -64.0350 339° North 458 527 34,000  Level FlightAware ADS-B
Thu 02:20:02 AM 14.6360 -64.0100 159° South 458 527 34,000  Level FlightAware ADS-B
Thu 02:20:47 AM 14.7150 -64.0420 339° North 458 527 34,000  Level FlightAware ADS-B
Thu 02:21:37 AM 14.6360 -64.0100 159° South 457 526 34,000  Level FlightAware ADS-B
Thu 02:22:12 AM 15.0340 -64.1680 339° North 458 527 34,000  Level FlightAware ADS-B
Thu 02:23:12 AM 15.1450 -64.2280 332° Northwest 458 527 34,000  Level FlightAware ADS-B
Thu 02:23:52 AM 15.2080 -64.2660 330° Northwest 458 527 34,000  Level FlightAware ADS-B
Thu 02:24:32 AM 15.2700 -64.3030 330° Northwest 458 527 34,000  Level FlightAware ADS-B
Thu 02:25:12 AM 15.3330 -64.3400 330° Northwest 458 527 34,000  Level FlightAware ADS-B
Thu 02:26:02 AM 15.4110 -64.3870 330° Northwest 458 527 34,000  Level FlightAware ADS-B
Thu 02:26:42 AM 15.4730 -64.4240 330° Northwest 458 527 34,000  Level FlightAware ADS-B
Thu 02:27:22 AM 15.5350 -64.4620 329° Northwest 458 527 34,000  Level FlightAware ADS-B
Thu 02:28:02 AM 15.5980 -64.4990 331° Northwest 458 527 34,000  Level FlightAware ADS-B
Thu 02:28:42 AM 15.6600 -64.5370 329° Northwest 458 527 34,000  Level FlightAware ADS-B
Thu 02:29:32 AM 15.7380 -64.5830 330° Northwest 458 527 34,000  Level FlightAware ADS-B
Thu 02:30:12 AM 15.8010 -64.6210 330° Northwest 458 527 34,000  Level FlightAware ADS-B
Thu 02:30:52 AM 15.8630 -64.6580 330° Northwest 458 527 34,000  Level FlightAware ADS-B
Thu 02:31:32 AM 15.9250 -64.6960 329° Northwest 458 527 34,000  Level FlightAware ADS-B
Thu 02:32:12 AM 15.9880 -64.7330 331° Northwest 458 527 34,000  Level FlightAware ADS-B
Thu 02:34:52 AM 16.4060 -65.0440 324° Northwest 460 529 34,000  Level FlightAware ADS-B
Thu 02:35:32 AM 16.4800 -65.0950 327° Northwest 462 532 34,000  Level FlightAware ADS-B
Thu 02:36:12 AM 16.5430 -65.1390 326° Northwest 462 532 34,000  Level FlightAware ADS-B
Thu 02:36:52 AM 16.6030 -65.1810 326° Northwest 462 532 34,000  Level FlightAware ADS-B
Thu 02:37:42 AM 16.6790 -65.2340 326° Northwest 462 532 34,000  Level FlightAware ADS-B
Thu 02:38:22 AM 16.7840 -65.3020 328° Northwest 463 533 34,000  Level FlightAware ADS-B
Thu 02:39:02 AM 16.8560 -65.3520 326° Northwest 463 533 34,000  Level FlightAware ADS-B
Thu 02:39:47 AM 16.9370 -65.4070 327° Northwest 462 532 34,000  Level FlightAware ADS-B
Thu 02:40:37 AM 17.0220 -65.4650 327° Northwest 462 532 34,000  Level FlightAware ADS-B
Thu 02:41:22 AM 17.1100 -65.5210 329° Northwest 462 532 34,000  Level FlightAware ADS-B
Thu 02:42:17 AM 17.2050 -65.5820 328° Northwest 461 531 34,000  Level FlightAware ADS-B
Thu 02:43:17 AM 17.3100 -65.6500 328° Northwest 461 531 34,000  Level FlightAware ADS-B
Thu 02:43:57 AM 17.3890 -65.7010 328° Northwest 460 529 34,000  Level FlightAware ADS-B
Thu 02:44:42 AM 17.4750 -65.7570 328° Northwest 459 528 34,000  Level FlightAware ADS-B
Thu 02:45:22 AM 17.5470 -65.8040 328° Northwest 460 529 34,000  Level FlightAware ADS-B
Thu 02:46:02 AM 17.6200 -65.8510 328° Northwest 459 528 34,000  Level FlightAware ADS-B
Thu 02:46:47 AM 17.7020 -65.9050 328° Northwest 459 528 34,000  Level FlightAware ADS-B
Thu 02:47:27 AM 17.7760 -65.9520 329° Northwest 461 531 34,000 212 Level FlightAware ADS-B
Thu 02:48:12 AM 17.8560 -66.0040 328° Northwest 461 531 34,300 1,200 Climbing FlightAware ADS-B
Thu 02:48:52 AM 17.9280 -66.0510 328° Northwest 449 517 35,700 1,275 Climbing FlightAware ADS-B
Thu 02:49:32 AM 17.9970 -66.0960 328° Northwest 436 502 36,000 212 Climbing FlightAware ADS-B
Thu 02:50:17 AM 18.0750 -66.1470 328° Northwest 428 493 36,000  Level FlightAware ADS-B
Thu 02:50:57 AM 18.1430 -66.1920 328° Northwest 433 498 36,000  Level FlightAware ADS-B
Thu 02:51:42 AM 18.2180 -66.2410 328° Northwest 438 504 36,000  Level FlightAware ADS-B
Thu 02:52:22 AM 18.2880 -66.2870 328° Northwest 442 509 36,000  Level FlightAware ADS-B
Thu 02:53:02 AM 18.3570 -66.3320 328° Northwest 443 510 36,000  Level FlightAware ADS-B
Thu 02:53:47 AM 18.4370 -66.3850 328° Northwest 446 513 36,000  Level FlightAware ADS-B
Thu 02:54:27 AM 18.5080 -66.4310 328° Northwest 449 517 36,000  Level FlightAware ADS-B
Thu 02:55:12 AM 18.5740 -66.4950 317° Northwest 445 512 36,000  Level FlightAware ADS-B
Thu 02:55:52 AM 18.6220 -66.5660 306° West 447 514 36,000  Level FlightAware ADS-B
Thu 02:56:32 AM 18.6690 -66.6400 304° West 449 517 36,000  Level FlightAware ADS-B
Thu 02:57:17 AM 18.7210 -66.7200 304° West 450 518 36,000  Level FlightAware ADS-B
Thu 02:57:57 AM 18.7680 -66.7930 304° West 451 519 36,000  Level FlightAware ADS-B
Thu 02:58:42 AM 18.8210 -66.8750 304° West 449 517 36,000  Level FlightAware ADS-B
Thu 02:59:22 AM 18.8690 -66.9490 304° West 448 516 36,000  Level FlightAware ADS-B
Thu 02:59:57 AM 18.9090 -67.0100 305° West 447 514 36,000  Level FlightAware ADS-B
Thu 03:00:48 AM 18.9690 -67.1030 304° West 444 511 36,000  Level FlightAware ADS-B
Thu 03:01:28 AM 19.0140 -67.1740 304° West 442 509 36,000  Level FlightAware ADS-B
Thu 03:02:13 AM 19.0660 -67.2540 305° West 440 506 36,000  Level FlightAware ADS-B
Thu 03:02:53 AM 19.1110 -67.3240 304° West 439 505 36,000  Level FlightAware ADS-B
Thu 03:03:33 AM 19.1600 -67.3990 305° West 438 504 36,000  Level FlightAware ADS-B
Thu 03:04:18 AM 19.2090 -67.4760 304° West 437 503 36,000  Level FlightAware ADS-B
Thu 03:04:58 AM 19.2550 -67.5480 304° West 437 503 36,000  Level FlightAware ADS-B
Thu 03:05:43 AM 19.3060 -67.6250 305° West 437 503 36,000  Level FlightAware ADS-B
Thu 03:06:23 AM 19.3510 -67.6950 304° West 437 503 36,000  Level FlightAware ADS-B
Thu 03:07:03 AM 19.3970 -67.7670 304° West 437 503 36,000  Level FlightAware ADS-B
Thu 03:07:48 AM 19.4490 -67.8490 304° West 437 503 36,000  Level FlightAware ADS-B
Thu 03:08:28 AM 19.4940 -67.9190 304° West 437 503 36,000  Level FlightAware ADS-B
Thu 03:09:13 AM 19.5440 -67.9970 304° West 436 502 36,000  Level FlightAware ADS-B
Thu 03:09:53 AM 19.5910 -68.0700 304° West 436 502 36,000  Level FlightAware ADS-B
Thu 03:10:38 AM 19.6410 -68.1480 304° West 436 502 36,000  Level FlightAware ADS-B
Thu 03:11:18 AM 19.6870 -68.2200 304° West 436 502 36,000  Level FlightAware ADS-B
Thu 03:11:58 AM 19.7320 -68.2900 304° West 435 501 36,000  Level FlightAware ADS-B
Thu 03:12:43 AM 19.7830 -68.3710 304° West 434 499 36,000  Level FlightAware ADS-B
Thu 03:13:23 AM 19.8270 -68.4400 304° West 432 497 36,000  Level FlightAware ADS-B
Thu 03:14:08 AM 19.8780 -68.5200 304° West 431 496 36,000  Level FlightAware ADS-B
Thu 03:14:48 AM 19.9220 -68.5900 304° West 431 496 36,000  Level FlightAware ADS-B
Thu 03:15:28 AM 19.9660 -68.6600 304° West 430 495 36,000  Level FlightAware ADS-B
Thu 03:16:13 AM 20.0140 -68.7400 303° West 429 494 36,000  Level FlightAware ADS-B
Thu 03:16:53 AM 20.0560 -68.8150 301° West 429 494 36,000  Level FlightAware ADS-B
Thu 03:17:38 AM 20.1010 -68.8950 301° West 428 493 36,000  Level FlightAware ADS-B
Thu 03:18:18 AM 20.1400 -68.9670 300° West 428 493 36,000  Level FlightAware ADS-B
Thu 03:18:58 AM 20.1800 -69.0390 301° West 428 493 36,000  Level FlightAware ADS-B
Thu 03:19:43 AM 20.2180 -69.1100 300° West 428 493 36,000  Level FlightAware ADS-B
Thu 03:20:23 AM 20.2520 -69.1720 300° West 428 493 36,000  Level FlightAware ADS-B
Thu 03:21:03 AM 20.2860 -69.2340 300° West 428 493 36,000  Level FlightAware ADS-B
Thu 03:21:43 AM 20.3190 -69.2960 300° West 428 493 36,000  Level FlightAware ADS-B
Thu 03:22:23 AM 20.3530 -69.3590 300° West 428 493 36,000  Level FlightAware ADS-B
Thu 03:23:13 AM 20.3950 -69.4360 300° West 428 493 36,000  Level FlightAware ADS-B
Thu 03:23:53 AM 20.4290 -69.4990 300° West 428 493 36,000  Level FlightAware ADS-B
Thu 03:24:33 AM 20.4620 -69.5610 300° West 428 493 36,000  Level FlightAware ADS-B
Thu 03:25:13 AM 20.4960 -69.6230 300° West 428 493 36,000  Level FlightAware ADS-B
Thu 03:25:53 AM 20.5300 -69.6850 300° West 428 493 36,000  Level FlightAware ADS-B
Thu 03:26:43 AM 20.5720 -69.7630 300° West 428 493 36,000  Level FlightAware ADS-B
Thu 03:27:23 AM 20.6050 -69.8250 300° West 428 493 36,000  Level FlightAware ADS-B
Thu 03:28:03 AM 20.6390 -69.8880 300° West 428 493 36,000  Level FlightAware ADS-B
Thu 03:28:43 AM 20.6730 -69.9500 300° West 428 493 36,000  Level FlightAware ADS-B
Thu 03:28:58 AM 20.6797 -70.0983 300° West 432 497 36,000  Level Miami Center
Thu 03:30:00 AM 20.7408 -70.2083 301° West 432 497 36,000  Level Miami Center
Thu 03:30:58 AM 20.8017 -70.3183 301° West 427 491 36,000  Level Miami Center
Thu 03:32:00 AM 20.8583 -70.4286 299° West 427 491 36,000  Level Miami Center
Thu 03:32:58 AM 20.9169 -70.5347 301° West 427 491 36,000  Level Miami Center
Thu 03:34:00 AM 20.9756 -70.6450 300° West 427 491 36,000  Level Miami Center
Thu 03:34:59 AM 21.0342 -70.7556 300° West 427 491 36,000  Level Miami Center
Thu 03:35:59 AM 21.0928 -70.8642 300° West 427 491 36,000  Level Miami Center
Thu 03:36:58 AM 21.1403 -70.9597 298° West 427 491 36,000  Level Miami Center
Thu 03:37:58 AM 21.1986 -71.0706 299° West 427 491 36,000  Level Miami Center
Thu 03:38:58 AM 21.2572 -71.1839 299° West 427 491 36,000  Level Miami Center
Thu 03:39:58 AM 21.3175 -71.2969 300° West 427 491 36,000  Level Miami Center
Thu 03:40:58 AM 21.3778 -71.4081 300° West 432 497 36,000  Level Miami Center
Thu 03:41:58 AM 21.4361 -71.5192 299° West 432 497 36,000  Level Miami Center
Thu 03:42:59 AM 21.4939 -71.6283 300° West 426 490 36,000  Level Miami Center
Thu 03:43:58 AM 21.5519 -71.7400 299° West 426 490 36,000  Level Miami Center
Thu 03:44:58 AM 21.6097 -71.8492 300° West 426 490 36,000  Level Miami Center
Thu 03:45:58 AM 21.6678 -71.9586 300° West 426 490 36,000  Level Miami Center
Thu 03:46:59 AM 21.7256 -72.0728 299° West 426 490 36,000  Level Miami Center
Thu 03:47:58 AM 21.7875 -72.1911 299° West 426 490 36,000  Level Miami Center
Thu 03:48:58 AM 21.8431 -72.3031 298° West 426 490 36,000  Level Miami Center
Thu 03:49:58 AM 21.9050 -72.4150 301° West 431 496 36,000  Level Miami Center
Thu 03:50:58 AM 21.9603 -72.5294 298° West 431 496 36,000  Level Miami Center
Thu 03:52:00 AM 22.0178 -72.6419 299° West 426 490 36,000  Level Miami Center
Thu 03:52:58 AM 22.0772 -72.7542 300° West 431 496 36,000  Level Miami Center
Thu 03:53:58 AM 22.1344 -72.8689 298° West 431 496 36,000  Level Miami Center
Thu 03:54:58 AM 22.1939 -72.9836 299° West 431 496 36,000  Level Miami Center
Thu 03:55:58 AM 22.2531 -73.0964 300° West 431 496 36,000  Level Miami Center
Thu 03:56:58 AM 22.3081 -73.2136 297° West 431 496 36,000  Level Miami Center
Thu 03:57:58 AM 22.3694 -73.3264 300° West 431 496 36,000  Level Miami Center
Thu 03:58:58 AM 22.4111 -73.4175 296° West 431 496 36,000  Level Miami Center
Thu 03:59:59 AM 22.4703 -73.5439 297° West 426 490 36,000  Level Miami Center
Thu 04:00:58 AM 22.5292 -73.6572 299° West 426 490 36,000  Level Miami Center
Thu 04:01:59 AM 22.5900 -73.7703 300° West 426 490 36,000  Level Miami Center
Thu 04:02:58 AM 22.6425 -73.8861 296° West 426 490 36,000  Level Miami Center
Thu 04:03:59 AM 22.7033 -74.0086 298° West 426 490 36,000  Level Miami Center
Thu 04:04:58 AM 22.7597 -74.1222 298° West 431 496 36,000  Level Miami Center
Thu 04:05:58 AM 22.8158 -74.2336 299° West 431 496 36,000  Level Miami Center
Thu 04:06:58 AM 22.8742 -74.3472 299° West 426 490 36,000  Level Miami Center
Thu 04:07:58 AM 22.9239 -74.4500 298° West 426 490 36,000  Level Miami Center
Thu 04:08:58 AM 22.9844 -74.5731 298° West 426 490 36,000  Level Miami Center
Thu 04:09:58 AM 23.0403 -74.6850 298° West 426 490 36,000  Level Miami Center
Thu 04:10:58 AM 23.0964 -74.7969 299° West 426 490 36,000  Level Miami Center
Thu 04:11:59 AM 23.1522 -74.9111 298° West 431 496 36,000  Level Miami Center
Thu 04:12:58 AM 23.2058 -75.0233 297° West 426 490 36,000  Level Miami Center
Thu 04:13:58 AM 23.2614 -75.1356 298° West 426 490 36,000  Level Miami Center
Thu 04:14:58 AM 23.3192 -75.2503 299° West 431 496 36,000  Level Miami Center
Thu 04:15:59 AM 23.3725 -75.3650 297° West 426 490 36,000  Level Miami Center
Thu 04:16:59 AM 23.4281 -75.4775 298° West 426 490 36,000  Level Miami Center
Thu 04:18:00 AM 23.4792 -75.5789 299° West 426 490 36,000  Level Miami Center
Thu 04:19:00 AM 23.5386 -75.7053 297° West 426 490 36,000  Level Miami Center
Thu 04:20:00 AM 23.5894 -75.8114 298° West 431 496 36,000  Level Miami Center
Thu 04:21:01 AM 23.6447 -75.9244 298° West 431 496 36,000  Level Miami Center
Thu 04:21:59 AM 23.6956 -76.0375 296° West 426 490 36,000  Level Miami Center
Thu 04:23:00 AM 23.7525 -76.1506 299° West 421 484 36,000  Level Miami Center
Thu 04:24:00 AM 23.8053 -76.2617 297° West 421 484 36,000  Level Miami Center
Thu 04:24:59 AM 23.8578 -76.3772 296° West 421 484 36,000  Level Miami Center
Thu 04:25:59 AM 23.9147 -76.4906 299° West 426 490 36,000  Level Miami Center
Thu 04:26:59 AM 23.9650 -76.6042 296° West 426 490 36,000  Level Miami Center
Thu 04:27:58 AM 24.0194 -76.7200 297° West 426 490 36,000  Level Miami Center
Thu 04:28:58 AM 24.0719 -76.8339 297° West 426 490 36,000  Level Miami Center
Thu 04:29:58 AM 24.1325 -76.9589 298° West 419 482 36,000  Level Miami Center
Thu 04:30:58 AM 24.1992 -77.0617 305° West 419 482 36,000  Level Miami Center
Thu 04:31:59 AM 24.3142 -77.0983 344° North 400 460 36,000  Level Miami Center
Thu 04:32:58 AM 24.4353 -77.1306 346° North 420 483 36,000  Level Miami Center
Thu 04:34:00 AM 24.5186 -77.2153 317° Northwest 414 476 36,000  Level Miami Center
Thu 04:34:58 AM 24.5603 -77.3386 290° West 399 459 36,000  Level Miami Center
Thu 04:35:59 AM 24.5994 -77.4600 290° West 409 471 36,000  Level Miami Center
Thu 04:36:58 AM 24.6386 -77.5858 289° West 420 483 36,000  Level Miami Center
Thu 04:37:59 AM 24.6756 -77.6958 290° West 430 495 36,000  Level Miami Center
Thu 04:38:58 AM 24.7208 -77.8153 293° West 430 495 36,000  Level Miami Center
Thu 04:39:58 AM 24.7661 -77.9392 292° West 430 495 36,000  Level Miami Center
Thu 04:41:00 AM 24.8069 -78.0608 290° West 430 495 36,000  Level Miami Center
Thu 04:41:59 AM 24.8517 -78.1825 292° West 430 495 36,000  Level Miami Center
Thu 04:43:00 AM 24.8947 -78.3000 292° West 430 495 36,000 -303 Level Miami Center
Thu 04:43:58 AM 24.9372 -78.4219 291° West 430 495 35,400 -2,218 Descending Miami Center
Thu 04:44:59 AM 24.9797 -78.5439 291° West 430 495 31,600 -3,197 Descending Miami Center
Thu 04:46:00 AM 25.0242 -78.6706 291° West 435 501 28,900 -2,579 Descending Miami Center
Thu 04:47:00 AM 25.0686 -78.7928 292° West 435 501 26,400 -2,441 Descending Miami Center
Thu 04:47:58 AM 25.1089 -78.9106 291° West 429 494 24,100 -2,319 Descending Miami Center
Thu 04:48:59 AM 25.1553 -79.0331 293° West 412 474 21,800 -2,200 Descending Miami Center
Thu 04:49:58 AM 25.1933 -79.1461 290° West 401 461 19,700 -1,670 Descending Miami Center
Thu 04:56:03 AM 25.5440 -79.7200 290° West 272 313 10,000 -1,563 Descending FlightAware ADS-B
Thu 04:56:18 AM 25.5560 -79.7330 316° Northwest 270 311 9,800 -1,333 Descending FlightAware ADS-B
Thu 04:56:48 AM 25.5840 -79.7680 312° West 268 308 9,000 -1,418 Descending FlightAware ADS-B
Thu 04:57:13 AM 25.6040 -79.7920 313° West 270 311 8,500 -600 Descending FlightAware ADS-B
Thu 04:57:38 AM 25.6240 -79.8170 312° West 270 311 8,500 -857 Level FlightAware ADS-B
Thu 04:58:23 AM 25.6610 -79.8630 312° West 269 310 7,500 -1,800 Descending FlightAware ADS-B
Thu 04:59:08 AM 25.7010 -79.9110 313° West 267 307 5,800 -1,971 Descending FlightAware ADS-B
Thu 04:59:33 AM 25.7220 -79.9370 312° West 264 304 5,200 -1,091 Descending FlightAware ADS-B
Thu 05:00:03 AM 25.7450 -79.9650 312° West 245 282 4,800 -1,000 Descending FlightAware ADS-B
Thu 05:00:33 AM 25.7690 -79.9950 312° West 248 285 4,200 -1,200 Descending FlightAware ADS-B
Thu 05:00:58 AM 25.7880 -80.0190 311° West 248 285 3,700 -1,200 Descending FlightAware ADS-B
Thu 05:01:28 AM 25.8110 -80.0470 312° West 246 283 3,100 -764 Descending FlightAware ADS-B
Thu 05:01:53 AM 25.8310 -80.0710 313° West 247 284 3,000 -109 Descending FlightAware ADS-B
Thu 05:02:23 AM 25.8530 -80.0980 312° West 237 273 3,000  Level FlightAware ADS-B
Thu 05:02:38 AM 25.8640 -80.1120 311° West 220 253 3,000  Level FlightAware ADS-B
Thu 05:03:03 AM 25.8790 -80.1320 310° West 187 215 3,000 -450 Level FlightAware ADS-B
Thu 05:03:18 AM 25.8830 -80.1450 289° West 190 219 2,700 -1,029 Descending FlightAware ADS-B
Thu 05:03:38 AM 25.8850 -80.1640 277° West 183 211 2,400 -873 Descending FlightAware ADS-B
Thu 05:04:13 AM 25.8820 -80.1960 264° West 164 189 1,900 -831 Descending FlightAware ADS-B
Thu 05:04:43 AM 25.8800 -80.2190 264° West 147 169 1,500 -800 Descending FlightAware ADS-B
Thu 05:05:13 AM 25.8800 -80.2420 270° West 140 161 1,100 -655 Descending FlightAware ADS-B
Thu 05:05:38 AM 25.8780 -80.2600 263° West 139 160 900 -655 Descending FlightAware ADS-B
Thu 05:06:08 AM 25.8770 -80.2810 267° West 142 163 500 -800 Descending FlightAware ADS-B
Thu 05:06:43 AM 25.8760 -80.3080 268° West 146 168 -857 Descending FlightAware ADS-B

Login

Don't have an account? Register now (free) for customized features, flight alerts, and more!